createdAt,value
2022-08-25T00:02:13.807Z,2.35
2022-08-25T00:05:16.530Z,2.00
2022-08-25T00:08:20.749Z,2.20
2022-08-25T00:11:25.115Z,2.10
2022-08-25T00:14:29.411Z,2.47
2022-08-25T00:17:32.186Z,2.13
2022-08-25T00:20:35.121Z,1.85
2022-08-25T00:23:38.390Z,2.13
2022-08-25T00:26:43.844Z,2.00
2022-08-25T00:29:46.663Z,2.13
2022-08-25T00:32:55.242Z,1.77
2022-08-25T00:36:01.047Z,1.92
2022-08-25T00:39:03.985Z,2.17
2022-08-25T00:42:15.910Z,2.38
2022-08-25T00:45:19.408Z,2.03
2022-08-25T00:48:22.116Z,2.15
2022-08-25T00:51:28.639Z,1.92
2022-08-25T00:54:32.928Z,2.00
2022-08-25T00:57:38.808Z,2.20
2022-08-25T01:00:43.844Z,1.90
2022-08-25T01:03:46.835Z,2.08
2022-08-25T01:06:50.135Z,2.05
2022-08-25T01:09:53.752Z,2.10
2022-08-25T01:13:01.093Z,1.85
2022-08-25T01:16:04.603Z,2.20
2022-08-25T01:19:08.190Z,2.58
2022-08-25T01:22:13.032Z,1.90
2022-08-25T01:25:24.436Z,1.95
2022-08-25T01:28:27.270Z,2.28
2022-08-25T01:31:30.376Z,2.45
2022-08-25T01:34:34.238Z,2.47
2022-08-25T01:37:38.424Z,2.10
2022-08-25T01:40:42.840Z,1.85
2022-08-25T01:43:45.606Z,2.03
2022-08-25T01:46:48.391Z,2.50
2022-08-25T01:49:51.091Z,2.22
2022-08-25T01:52:59.654Z,2.20
2022-08-25T01:56:10.137Z,2.60
2022-08-25T01:59:15.706Z,2.30
2022-08-25T02:02:26.676Z,2.25
2022-08-25T02:05:29.635Z,2.45
2022-08-25T02:08:38.243Z,2.30
2022-08-25T02:11:42.223Z,2.13
2022-08-25T02:14:44.930Z,2.60
2022-08-25T02:17:47.609Z,2.38
2022-08-25T02:20:50.351Z,2.25
2022-08-25T02:23:54.675Z,1.83
2022-08-25T02:26:58.069Z,2.20
2022-08-25T02:30:01.277Z,2.47
2022-08-25T02:33:04.251Z,2.28
2022-08-25T02:36:07.495Z,2.10
2022-08-25T02:39:12.193Z,1.92
2022-08-25T02:42:15.175Z,1.90
2022-08-25T02:45:18.519Z,2.20
2022-08-25T02:48:21.712Z,2.75
2022-08-25T02:51:25.588Z,2.38
2022-08-25T02:54:30.151Z,2.03
2022-08-25T02:57:33.147Z,2.05
2022-08-25T03:00:36.155Z,2.45
2022-08-25T03:03:39.575Z,2.58
2022-08-25T03:06:42.476Z,2.58
2022-08-25T03:09:46.678Z,2.25
2022-08-25T03:12:50.684Z,1.95
2022-08-25T03:15:54.279Z,2.58
2022-08-25T03:18:57.490Z,2.33
2022-08-25T03:22:01.453Z,2.58
2022-08-25T03:25:24.058Z,2.20
2022-08-25T03:28:29.822Z,2.40
2022-08-25T03:31:34.677Z,2.17
2022-08-25T03:34:52.003Z,2.00
2022-08-25T03:47:29.573Z,2.25
2022-08-25T04:16:40.832Z,3.75
2022-08-25T04:19:44.023Z,4.55
2022-08-25T04:22:47.072Z,4.35
2022-08-25T04:25:49.727Z,3.55
2022-08-25T04:28:52.745Z,4.78
2022-08-25T04:32:03.789Z,4.03
2022-08-25T04:35:07.445Z,4.35
2022-08-25T04:38:10.016Z,4.55
2022-08-25T04:41:13.684Z,4.68
2022-08-25T04:44:17.624Z,5.38
2022-08-25T04:47:21.632Z,4.88
2022-08-25T04:50:25.460Z,5.80
2022-08-25T04:53:28.236Z,6.18
2022-08-25T04:56:32.548Z,5.38
2022-08-25T04:59:35.111Z,4.82
2022-08-25T05:02:39.011Z,5.30
2022-08-25T05:05:41.593Z,5.22
2022-08-25T05:08:46.062Z,5.18
2022-08-25T05:11:48.872Z,5.15
2022-08-25T05:14:53.011Z,6.50
2022-08-25T05:17:57.398Z,6.35
2022-08-25T05:21:03.096Z,5.53
2022-08-25T05:24:34.145Z,6.15
2022-08-25T05:27:36.660Z,5.30
2022-08-25T05:30:58.855Z,5.95
2022-08-25T05:34:06.163Z,6.30
2022-08-25T05:37:12.171Z,6.75
2022-08-25T05:40:15.593Z,5.32
2022-08-25T05:43:18.395Z,6.93
2022-08-25T05:46:21.869Z,5.85
2022-08-25T05:49:25.982Z,6.18
2022-08-25T05:52:28.630Z,6.63
2022-08-25T05:55:31.219Z,6.53
2022-08-25T05:58:33.903Z,5.78
2022-08-25T06:01:53.795Z,6.35
2022-08-25T06:05:00.525Z,5.95
2022-08-25T06:08:03.431Z,5.72
2022-08-25T06:11:07.262Z,5.97
2022-08-25T06:14:10.771Z,6.18
2022-08-25T06:17:13.407Z,6.28
2022-08-25T06:20:19.464Z,6.80
2022-08-25T06:24:17.684Z,6.88
2022-08-25T06:27:20.338Z,6.95
2022-08-25T06:30:28.807Z,6.97
2022-08-25T06:34:00.666Z,6.63
2022-08-25T06:37:04.652Z,6.55
2022-08-25T06:40:08.217Z,6.40
2022-08-25T06:43:10.922Z,6.10
2022-08-25T06:46:14.861Z,6.43
2022-08-25T06:49:37.325Z,5.75
2022-08-25T06:52:41.490Z,5.10
2022-08-25T06:55:57.067Z,6.15
2022-08-25T06:58:59.803Z,5.93
2022-08-25T07:02:03.301Z,5.70
2022-08-25T07:05:17.034Z,6.20
2022-08-25T07:09:29.687Z,5.78
2022-08-25T07:12:32.365Z,6.00
2022-08-25T07:15:39.133Z,5.65
2022-08-25T07:18:42.113Z,6.10
2022-08-25T07:21:49.233Z,5.35
2022-08-25T07:24:54.454Z,5.18
2022-08-25T07:28:00.004Z,6.78
2022-08-25T07:31:02.670Z,5.95
2022-08-25T07:34:25.463Z,5.68
2022-08-25T07:37:47.858Z,5.25
2022-08-25T07:41:03.287Z,5.38
2022-08-25T07:44:06.355Z,6.18
2022-08-25T07:47:09.162Z,5.40
2022-08-25T07:50:12.779Z,5.45
2022-08-25T07:53:18.087Z,5.45
2022-08-25T07:56:22.449Z,5.40
2022-08-25T07:59:25.112Z,4.82
2022-08-25T08:02:30.097Z,4.80
2022-08-25T08:05:33.554Z,4.35
2022-08-25T08:08:37.700Z,4.90
2022-08-25T08:11:53.815Z,4.10
2022-08-25T08:15:15.351Z,4.45
2022-08-25T08:18:18.393Z,4.47
2022-08-25T08:21:22.526Z,4.47
2022-08-25T08:24:44.139Z,3.90
2022-08-25T08:27:50.902Z,3.70
2022-08-25T08:30:57.880Z,4.03
2022-08-25T08:34:00.954Z,3.45
2022-08-25T08:37:04.169Z,3.70
2022-08-25T08:40:07.419Z,3.63
2022-08-25T08:43:21.260Z,2.92
2022-08-25T08:46:42.733Z,3.45
2022-08-25T08:49:50.682Z,3.47
2022-08-25T08:52:56.030Z,2.75
2022-08-25T08:56:12.420Z,3.03
2022-08-25T08:59:19.863Z,2.80
2022-08-25T09:02:51.351Z,2.30
2022-08-25T09:05:58.163Z,2.58
2022-08-25T09:09:03.672Z,2.50
2022-08-25T09:16:51.165Z,2.40
2022-08-25T09:20:29.863Z,1.98
2022-08-25T09:24:37.807Z,2.22
2022-08-25T09:28:02.434Z,2.47
2022-08-25T09:31:17.277Z,2.28
2022-08-25T09:34:25.517Z,2.20
2022-08-25T09:37:31.941Z,2.15
2022-08-25T09:41:31.067Z,2.13
2022-08-25T09:44:50.932Z,6.00
2022-08-25T09:47:54.011Z,2.30
2022-08-25T09:51:28.671Z,2.22
2022-08-25T09:54:52.407Z,1.98
2022-08-25T09:58:03.229Z,1.98
2022-08-25T10:01:14.676Z,2.40
2022-08-25T10:04:29.899Z,1.80
2022-08-25T10:07:41.326Z,2.20
2022-08-25T10:11:06.589Z,2.20
2022-08-25T10:14:17.939Z,1.80
2022-08-25T10:17:29.428Z,2.35
2022-08-25T10:21:02.061Z,2.00
2022-08-25T10:24:20.228Z,2.25
2022-08-25T10:27:31.189Z,1.98
2022-08-25T10:34:35.716Z,1.75
2022-08-25T10:37:48.554Z,2.08
2022-08-25T10:41:10.073Z,2.38
2022-08-25T10:44:57.402Z,2.15
2022-08-25T10:48:25.750Z,2.00
2022-08-25T10:51:33.618Z,2.38
2022-08-25T10:54:43.572Z,2.03
2022-08-25T10:57:56.693Z,1.98
2022-08-25T11:03:09.704Z,2.30
2022-08-25T11:05:53.026Z,1.80
2022-08-25T11:09:15.903Z,2.05
2022-08-25T11:14:22.474Z,2.20
2022-08-25T11:21:30.813Z,1.77
2022-08-25T11:24:38.315Z,2.00
2022-08-25T11:27:51.852Z,2.20
2022-08-25T11:31:05.157Z,2.17
2022-08-25T11:34:10.814Z,2.63
2022-08-25T11:37:24.053Z,2.00
2022-08-25T11:40:50.243Z,1.85
2022-08-25T11:44:05.559Z,2.13
2022-08-25T11:47:21.824Z,2.28
2022-08-25T11:50:31.435Z,2.20
2022-08-25T11:53:42.489Z,1.80
2022-08-25T11:56:55.536Z,1.70
2022-08-25T12:00:10.793Z,1.75
2022-08-25T12:03:44.341Z,1.88
2022-08-25T12:07:10.652Z,1.65
2022-08-25T12:10:48.331Z,2.00
2022-08-25T12:14:23.601Z,2.10
2022-08-25T12:17:31.310Z,1.58
2022-08-25T12:25:10.359Z,2.53
2022-08-25T12:28:29.864Z,1.58
2022-08-25T12:31:46.922Z,2.42
2022-08-25T12:35:10.587Z,1.85
2022-08-25T12:38:20.173Z,1.92
2022-08-25T12:41:39.185Z,1.92
2022-08-25T12:45:27.887Z,2.55
2022-08-25T12:48:46.561Z,2.17
2022-08-25T12:51:57.417Z,2.00
2022-08-25T12:55:15.142Z,2.20
2022-08-25T12:59:00.262Z,2.05
2022-08-25T13:02:26.972Z,1.88
2022-08-25T13:06:21.579Z,2.13
2022-08-25T13:10:07.524Z,2.28
2022-08-25T13:13:44.089Z,2.17
2022-08-25T13:16:55.446Z,1.70
2022-08-25T13:20:18.314Z,2.00
2022-08-25T13:23:29.198Z,2.15
2022-08-25T13:26:35.354Z,2.20
2022-08-25T13:29:51.278Z,2.15
2022-08-25T13:33:00.446Z,1.75
2022-08-25T13:36:35.105Z,1.83
2022-08-25T13:39:55.813Z,2.38
2022-08-25T13:43:05.571Z,2.35
2022-08-25T13:46:08.655Z,1.90
2022-08-25T13:49:14.368Z,1.98
2022-08-25T13:52:20.299Z,2.00
2022-08-25T13:55:38.181Z,2.42
2022-08-25T13:58:56.310Z,1.98
2022-08-25T14:02:00.609Z,2.22
2022-08-25T14:05:03.940Z,2.25
2022-08-25T14:08:28.436Z,2.05
2022-08-25T14:11:32.464Z,2.15
2022-08-25T14:14:36.944Z,2.30
2022-08-25T14:17:40.887Z,1.92
2022-08-25T14:20:46.035Z,1.92
2022-08-25T14:23:49.161Z,1.92
2022-08-25T14:26:54.366Z,2.00
2022-08-25T14:29:59.295Z,1.85
2022-08-25T14:33:03.319Z,1.67
2022-08-25T14:36:06.842Z,1.63
2022-08-25T14:39:10.133Z,2.00
2022-08-25T14:42:13.322Z,2.03
2022-08-25T14:45:18.562Z,1.98
2022-08-25T14:48:25.255Z,2.15
2022-08-25T14:51:28.886Z,2.08
2022-08-25T14:54:34.726Z,2.38
2022-08-25T14:57:40.063Z,2.58
2022-08-25T15:00:46.058Z,2.13
2022-08-25T15:03:51.944Z,2.50
2022-08-25T15:06:56.670Z,2.22
2022-08-25T15:10:00.007Z,2.53
2022-08-25T15:13:03.129Z,2.42
2022-08-25T15:16:08.905Z,2.80
2022-08-25T15:19:14.527Z,2.35
2022-08-25T15:22:19.879Z,2.40
2022-08-25T15:25:22.817Z,2.67
2022-08-25T15:28:27.473Z,2.22
2022-08-25T15:31:31.726Z,2.50
2022-08-25T15:34:35.352Z,2.25
2022-08-25T15:37:42.142Z,2.50
2022-08-25T15:40:45.481Z,2.58
2022-08-25T15:43:51.608Z,2.65
2022-08-25T15:46:56.326Z,2.35
2022-08-25T15:50:03.153Z,2.50
2022-08-25T15:53:08.319Z,2.38
2022-08-25T15:56:26.459Z,2.40
2022-08-25T15:59:30.545Z,2.50
2022-08-25T16:02:35.903Z,2.47
2022-08-25T16:05:39.111Z,1.98
2022-08-25T16:08:44.377Z,2.30
2022-08-25T16:11:56.643Z,2.20
2022-08-25T16:15:01.093Z,2.53
2022-08-25T16:18:05.942Z,2.60
2022-08-25T16:21:12.669Z,2.20
2022-08-25T16:24:15.687Z,2.28
2022-08-25T16:27:18.523Z,2.30
2022-08-25T16:30:21.691Z,2.53
2022-08-25T16:33:26.567Z,2.40
2022-08-25T16:36:29.476Z,2.33
2022-08-25T16:39:32.233Z,2.30
2022-08-25T16:42:35.557Z,2.55
2022-08-25T16:45:38.396Z,2.30
2022-08-25T16:48:43.618Z,2.22
2022-08-25T16:51:47.779Z,2.40
2022-08-25T16:55:15.989Z,2.50
2022-08-25T16:58:19.104Z,2.30
2022-08-25T17:01:23.185Z,2.63
2022-08-25T17:04:31.987Z,2.25
2022-08-25T17:07:35.552Z,2.50
2022-08-25T17:10:38.596Z,2.13
2022-08-25T17:13:44.593Z,2.50
2022-08-25T17:16:48.562Z,2.33
2022-08-25T17:19:55.110Z,2.15
2022-08-25T17:22:58.100Z,2.85
2022-08-25T17:26:01.536Z,2.60
2022-08-25T17:29:04.677Z,2.38
2022-08-25T17:32:10.032Z,2.42
2022-08-25T17:35:15.884Z,2.70
2022-08-25T17:38:20.797Z,2.22
2022-08-25T17:41:23.797Z,2.30
2022-08-25T17:44:26.602Z,2.50
2022-08-25T17:47:29.898Z,2.33
2022-08-25T17:50:36.069Z,2.65
2022-08-25T17:53:39.525Z,2.58
2022-08-25T17:56:42.528Z,2.50
2022-08-25T17:59:45.511Z,2.40
2022-08-25T18:02:48.432Z,2.50
2022-08-25T18:06:00.969Z,2.67
2022-08-25T18:09:09.618Z,2.63
2022-08-25T18:12:12.575Z,2.42
2022-08-25T18:15:16.363Z,2.17
2022-08-25T18:18:19.653Z,2.22
2022-08-25T18:21:33.857Z,2.70
2022-08-25T18:24:39.752Z,2.65
2022-08-25T18:27:42.919Z,2.80
2022-08-25T18:30:45.602Z,2.85
2022-08-25T18:33:50.915Z,2.63
2022-08-25T18:36:56.750Z,2.65
2022-08-25T18:40:16.678Z,2.60
2022-08-25T18:43:19.589Z,2.17
2022-08-25T18:46:23.408Z,3.40
2022-08-25T18:49:28.790Z,3.72
2022-08-25T18:52:33.039Z,3.58
2022-08-25T18:55:35.786Z,3.15
2022-08-25T18:58:38.917Z,3.10
2022-08-25T19:01:44.580Z,2.83
2022-08-25T19:04:51.953Z,2.65
2022-08-25T19:07:55.967Z,2.97
2022-08-25T19:10:58.643Z,3.10
2022-08-25T19:14:01.296Z,2.55
2022-08-25T19:17:04.109Z,2.58
2022-08-25T19:20:11.046Z,2.92
2022-08-25T19:23:15.776Z,2.88
2022-08-25T19:26:18.456Z,2.65
2022-08-25T19:29:21.346Z,2.67
2022-08-25T19:32:25.115Z,2.88
2022-08-25T19:35:30.978Z,2.50
2022-08-25T19:38:36.302Z,2.65
2022-08-25T19:41:39.666Z,2.85
2022-08-25T19:44:43.624Z,2.80
2022-08-25T19:47:46.443Z,3.42
2022-08-25T19:50:50.379Z,2.40
2022-08-25T19:54:02.945Z,2.53
2022-08-25T19:57:07.785Z,3.17
2022-08-25T20:00:14.788Z,3.38
2022-08-25T20:03:20.404Z,3.55
2022-08-25T20:06:23.713Z,2.60
2022-08-25T20:09:38.907Z,3.08
2022-08-25T20:12:44.545Z,2.83
2022-08-25T20:15:47.990Z,2.50
2022-08-25T20:18:50.724Z,3.05
2022-08-25T20:21:53.755Z,2.78
2022-08-25T20:24:59.063Z,3.38
2022-08-25T20:28:03.186Z,2.50
2022-08-25T20:31:06.275Z,3.33
2022-08-25T20:34:09.041Z,3.42
2022-08-25T20:37:11.972Z,2.63
2022-08-25T20:40:16.965Z,3.20
2022-08-25T20:43:20.760Z,3.00
2022-08-25T20:46:23.717Z,2.95
2022-08-25T20:49:28.157Z,3.15
2022-08-25T20:52:30.859Z,3.20
2022-08-25T20:55:42.256Z,2.95
2022-08-25T20:58:46.400Z,2.78
2022-08-25T21:01:49.758Z,2.80
2022-08-25T21:04:53.655Z,2.83
2022-08-25T21:07:59.545Z,3.08
2022-08-25T21:11:03.571Z,2.90
2022-08-25T21:14:08.219Z,3.10
2022-08-25T21:17:12.761Z,3.05
2022-08-25T21:20:17.168Z,3.00
2022-08-25T21:23:19.934Z,3.22
2022-08-25T21:26:25.360Z,3.47
2022-08-25T21:29:29.887Z,2.45
2022-08-25T21:32:33.690Z,3.40
2022-08-25T21:35:39.823Z,3.20
2022-08-25T21:38:42.933Z,2.97
2022-08-25T21:41:48.162Z,2.97
2022-08-25T21:44:52.674Z,3.45
2022-08-25T21:47:55.332Z,3.30
2022-08-25T21:51:04.266Z,3.30
2022-08-25T21:54:10.642Z,3.20
2022-08-25T21:57:14.853Z,3.30
2022-08-25T22:00:18.442Z,3.05
2022-08-25T22:03:24.211Z,2.83
2022-08-25T22:06:26.890Z,2.72
2022-08-25T22:09:31.920Z,3.15
2022-08-25T22:12:36.226Z,3.15
2022-08-25T22:15:38.873Z,3.10
2022-08-25T22:18:43.515Z,2.92
2022-08-25T22:21:46.255Z,2.97
2022-08-25T22:24:48.944Z,2.50
2022-08-25T22:27:56.894Z,2.63
2022-08-25T22:31:02.113Z,3.53
2022-08-25T22:34:05.196Z,2.78
2022-08-25T22:37:08.499Z,2.75
2022-08-25T22:40:11.699Z,2.90
2022-08-25T22:43:16.108Z,2.92
2022-08-25T22:46:19.393Z,3.10
2022-08-25T22:49:22.525Z,3.13
2022-08-25T22:52:33.296Z,3.35
2022-08-25T22:55:42.283Z,3.00
2022-08-25T22:58:51.702Z,2.78
2022-08-25T23:01:55.235Z,2.88
2022-08-25T23:04:57.991Z,2.67
2022-08-25T23:08:03.791Z,2.72
2022-08-25T23:11:09.811Z,2.65
2022-08-25T23:14:13.853Z,2.67
2022-08-25T23:17:16.574Z,2.92
2022-08-25T23:20:36.930Z,3.58
2022-08-25T23:23:48.632Z,3.45
2022-08-25T23:26:51.817Z,2.92
2022-08-25T23:29:55.926Z,3.10
2022-08-25T23:32:59.295Z,3.10
2022-08-25T23:36:04.040Z,2.75
2022-08-25T23:39:06.867Z,2.97
2022-08-25T23:42:10.486Z,2.95
2022-08-25T23:45:15.800Z,2.30
2022-08-25T23:48:21.207Z,2.60
2022-08-25T23:51:25.114Z,2.78
2022-08-25T23:54:30.943Z,2.88
2022-08-25T23:57:34.405Z,2.72
